Time;durP1;ratioP1;P1;durP2;ratioP2;P2;SDS_P1;SDS_P2;PMS_P1;PMS_P2;Temp;Humidity;BMP_temperature;BMP_pressure;BME280_temperature;BME280_humidity;BME280_pressure;Samples;Min_cycle;Max_cycle;Signal;HPM_P1;HPM_P2
2021/10/01 19:57:16;;;;;;;10.23;2.53;;;;;;;19.89;43.70;99626.16;4895919;28;20401;-70
2021/10/01 20:03:42;;;;;;;12.27;2.53;;;;;;;20.04;42.74;99627.19;4991727;27;20406;-68
2021/10/01 20:06:07;;;;;;;8.45;2.35;;;;;;;19.67;43.58;99628.97;4658234;28;6260209;-68
2021/10/01 20:10:41;;;;;;;13.13;3.38;;;;;;;18.95;44.79;99642.66;5051703;28;20907;-75
2021/10/01 20:13:06;;;;;;;17.17;4.03;;;;;;;18.87;45.06;99639.53;4942338;28;20045;-76
2021/10/01 20:15:31;;;;;;;10.52;3.22;;;;;;;18.80;45.29;99643.34;4982381;28;20046;-75
2021/10/01 20:17:59;;;;;;;10.70;2.85;;;;;;;18.78;45.76;99640.78;5013632;28;20026;-76
2021/10/01 20:20:57;;;;;;;8.43;2.78;;;;;;;18.79;45.36;99652.13;4981643;28;20488;-76
2021/10/01 20:47:57;;;;;;;5.30;1.10;;;;;;;18.74;45.60;99645.31;5007389;28;20054;-77
2021/10/01 20:50:22;;;;;;;4.75;1.00;;;;;;;18.74;45.22;99640.06;5066535;28;20036;-76
2021/10/01 20:52:48;;;;;;;5.03;2.13;;;;;;;18.74;45.15;99644.44;5059696;28;20547;-76
2021/10/01 20:55:13;;;;;;;4.63;1.27;;;;;;;18.74;45.32;99645.31;5053279;28;20041;-76
2021/10/01 20:57:50;;;;;;;4.13;0.90;;;;;;;18.72;45.49;99644.56;5033897;28;20033;-77
2021/10/01 21:00:26;;;;;;;3.90;1.58;;;;;;;18.71;45.47;99645.44;5043678;28;20052;-76
2021/10/01 21:03:02;;;;;;;4.85;1.08;;;;;;;18.71;45.75;99645.44;5041806;28;20105;-76
2021/10/01 21:36:10;;;;;;;5.70;1.35;;;;;;;18.70;45.72;99632.38;5002985;28;20038;-75
2021/10/01 21:41:38;;;;;;;5.07;0.93;;;;;;;18.68;45.70;99627.22;5014104;28;20422;-75
2021/10/01 21:46:57;;;;;;;3.33;0.90;;;;;;;18.63;45.57;99616.06;4994296;28;20113;-76
2021/10/01 21:49:25;;;;;;;5.40;1.00;;;;;;;18.66;45.58;99609.84;5004417;28;20132;-76
2021/10/01 21:51:50;;;;;;;5.43;1.60;;;;;;;18.64;45.74;99607.28;5013389;28;20049;-76
2021/10/01 21:54:17;;;;;;;5.45;1.67;;;;;;;18.62;46.29;99609.13;5014568;28;20029;-75
2021/10/01 21:56:43;;;;;;;3.03;1.17;;;;;;;18.62;46.16;99604.72;4995209;28;20073;-75
2021/10/01 21:59:16;;;;;;;4.28;1.02;;;;;;;18.63;45.67;99602.97;5013099;28;20033;-74
2021/10/01 22:01:44;;;;;;;3.70;1.17;;;;;;;18.62;45.90;99598.66;5025220;28;20770;-75
2021/10/01 22:12:49;;;;;;;4.43;1.15;;;;;;;18.59;46.03;99591.78;4997647;28;20541;-76
2021/10/01 22:15:33;;;;;;;4.75;1.00;;;;;;;18.56;45.96;99591.03;5010646;28;20044;-76
2021/10/01 22:20:45;;;;;;;3.40;1.05;;;;;;;18.57;45.96;99592.72;5001441;28;20018;-76
2021/10/01 22:23:11;;;;;;;2.40;1.20;;;;;;;18.57;46.27;99590.09;5009461;28;20040;-76
2021/10/01 22:25:36;;;;;;;3.75;1.15;;;;;;;18.59;46.40;99593.53;5011083;28;20042;-76
2021/10/01 22:28:02;;;;;;;3.30;2.15;;;;;;;18.55;46.09;99589.34;5004656;28;20042;-76
2021/10/01 22:30:29;;;;;;;3.38;0.90;;;;;;;18.53;46.28;99586.78;5024257;28;20073;-76
2021/10/01 22:32:55;;;;;;;4.78;1.02;;;;;;;18.57;46.07;99590.09;4989083;28;20413;-76
2021/10/01 22:35:21;;;;;;;4.97;1.55;;;;;;;18.63;46.60;99587.22;5007004;28;20105;-76
2021/10/01 22:37:47;;;;;;;3.25;0.88;;;;;;;18.58;46.06;99587.41;4993238;28;20037;-75
2021/10/01 22:40:17;;;;;;;8.10;1.15;;;;;;;18.57;46.12;99587.47;5010643;28;20116;-75
2021/10/01 22:42:47;;;;;;;3.28;1.15;;;;;;;18.56;46.70;99588.41;4993628;28;20049;-75
2021/10/01 22:45:13;;;;;;;5.32;1.45;;;;;;;18.56;46.13;99585.78;5018975;28;20120;-75
2021/10/01 22:47:38;;;;;;;2.97;1.05;;;;;;;18.54;45.57;99587.63;5008211;28;20076;-74
2021/10/01 22:50:05;;;;;;;3.53;1.38;;;;;;;18.55;46.06;99587.56;5020725;28;20065;-75
2021/10/01 22:52:31;;;;;;;4.63;1.23;;;;;;;18.55;46.28;99597.19;5008130;28;20066;-75
2021/10/01 22:54:58;;;;;;;3.72;1.42;;;;;;;18.54;45.94;99590.25;5031286;28;20044;-75
2021/10/01 22:57:27;;;;;;;4.85;0.98;;;;;;;18.54;45.94;99595.50;5037321;28;20064;-76
2021/10/01 22:59:52;;;;;;;4.70;0.73;;;;;;;18.58;46.03;99592.66;5019077;28;20597;-75
2021/10/01 23:02:20;;;;;;;3.67;1.15;;;;;;;18.58;46.21;99586.59;5037847;28;20032;-74
2021/10/01 23:04:45;;;;;;;5.43;1.20;;;;;;;18.58;46.15;99586.59;5013121;28;20378;-73
2021/10/01 23:07:12;;;;;;;4.30;1.60;;;;;;;18.57;46.01;99585.72;5059013;28;20033;-75
2021/10/01 23:09:39;;;;;;;9.07;1.52;;;;;;;18.58;46.47;99587.41;5039781;28;20056;-75
2021/10/01 23:12:09;;;;;;;8.95;1.23;;;;;;;18.59;46.52;99583.03;5004876;28;20037;-76
2021/10/01 23:14:49;;;;;;;7.13;1.67;;;;;;;18.59;46.02;99588.28;5011440;28;20028;-76
2021/10/01 23:17:32;;;;;;;4.80;1.60;;;;;;;18.59;46.00;99577.78;5006778;28;20059;-75
2021/10/01 23:42:15;;;;;;;4.63;1.00;;;;;;;18.52;46.02;99556.25;5018256;28;20060;-76
2021/10/01 23:45:12;;;;;;;6.75;1.35;;;;;;;18.52;46.52;99558.00;5029985;28;20052;-76
